createdAt,value
2019-05-14T00:02:12.198Z,102739.64
2019-05-14T00:04:42.500Z,102739.27
2019-05-14T00:07:12.102Z,102739.27
2019-05-14T00:09:41.613Z,102743.49
2019-05-14T00:12:11.458Z,102737.44
2019-05-14T00:14:43.574Z,102732.91
2019-05-14T00:17:11.553Z,102732.91
2019-05-14T00:19:41.583Z,102733.92
2019-05-14T00:22:11.888Z,102736.39
2019-05-14T00:24:41.560Z,102735.88
2019-05-14T00:27:11.790Z,102735.73
2019-05-14T00:29:42.012Z,102733.96
2019-05-14T00:32:11.476Z,102728.97
2019-05-14T00:34:42.426Z,102728.97
2019-05-14T00:37:11.773Z,102730.59
2019-05-14T00:39:41.638Z,102731.48
2019-05-14T00:42:12.564Z,102713.34
2019-05-14T00:44:53.640Z,102713.34
2019-05-14T00:47:12.765Z,102715.02
2019-05-14T00:49:42.635Z,102723.38
2019-05-14T00:52:12.096Z,102723.38
2019-05-14T00:54:42.031Z,102724.83
2019-05-14T00:57:11.849Z,102724.49
2019-05-14T00:59:41.908Z,102724.49
2019-05-14T01:02:11.604Z,102729.80
2019-05-14T01:04:42.887Z,102726.33
2019-05-14T01:07:12.251Z,102726.33
2019-05-14T01:09:42.123Z,102713.84
2019-05-14T01:12:12.167Z,102723.30
2019-05-14T01:14:42.540Z,102728.20
2019-05-14T01:17:11.908Z,102723.56
2019-05-14T01:19:42.532Z,102723.56
2019-05-14T01:22:12.585Z,102728.73
2019-05-14T01:24:42.208Z,102728.73
2019-05-14T01:27:12.383Z,102734.57
2019-05-14T01:29:42.690Z,102739.06
2019-05-14T01:32:12.490Z,102740.34
2019-05-14T01:34:42.280Z,102740.34
2019-05-14T01:37:12.093Z,102738.72
2019-05-14T01:39:42.012Z,102746.69
2019-05-14T01:42:12.596Z,102746.69
2019-05-14T01:44:41.989Z,102740.98
2019-05-14T01:47:12.654Z,102750.06
2019-05-14T01:49:42.729Z,102741.52
2019-05-14T01:52:12.121Z,102739.70
2019-05-14T01:54:42.723Z,102740.38
2019-05-14T01:57:11.905Z,102740.38
2019-05-14T01:59:42.866Z,102733.34
2019-05-14T02:02:12.035Z,102727.70
2019-05-14T02:04:42.793Z,102727.70
2019-05-14T02:07:15.553Z,102738.28
2019-05-14T02:09:43.123Z,102738.91
2019-05-14T02:12:12.242Z,102737.41
2019-05-14T02:14:42.396Z,102727.46
2019-05-14T02:17:12.591Z,102725.91
2019-05-14T02:19:42.758Z,102725.91
2019-05-14T02:22:11.923Z,102723.05
2019-05-14T02:24:41.752Z,102723.80
2019-05-14T02:27:12.489Z,102719.52
2019-05-14T02:29:41.892Z,102718.61
2019-05-14T02:32:11.327Z,102717.41
2019-05-14T02:34:40.776Z,102712.48
2019-05-14T02:37:09.945Z,102712.48
2019-05-14T02:39:40.925Z,102714.79
2019-05-14T02:42:10.044Z,102708.31
2019-05-14T02:44:40.712Z,102704.09
2019-05-14T02:47:10.486Z,102705.16
2019-05-14T02:49:40.186Z,102712.48
2019-05-14T02:52:10.374Z,102706.12
2019-05-14T02:54:40.812Z,102711.86
2019-05-14T02:57:10.876Z,102701.87
2019-05-14T02:59:40.462Z,102700.38
2019-05-14T03:02:10.480Z,102702.70
2019-05-14T03:04:40.063Z,102699.61
2019-05-14T03:07:11.163Z,102700.67
2019-05-14T03:09:40.725Z,102702.33
2019-05-14T03:12:10.533Z,102706.23
2019-05-14T03:14:40.300Z,102702.08
2019-05-14T03:17:10.932Z,102700.77
2019-05-14T03:19:41.083Z,102707.05
2019-05-14T03:22:10.573Z,102705.98
2019-05-14T03:24:40.047Z,102699.80
2019-05-14T03:27:10.034Z,102712.95
2019-05-14T03:29:40.296Z,102703.17
2019-05-14T03:32:12.848Z,102705.66
2019-05-14T03:34:42.782Z,102705.46
2019-05-14T03:37:13.636Z,102702.13
2019-05-14T03:39:42.255Z,102710.48
2019-05-14T03:42:11.412Z,102709.80
2019-05-14T03:44:40.879Z,102709.17
2019-05-14T03:47:10.795Z,102715.66
2019-05-14T03:49:40.327Z,102713.69
2019-05-14T03:52:09.998Z,102717.70
2019-05-14T03:54:41.071Z,102720.57
2019-05-14T03:57:10.551Z,102727.77
2019-05-14T03:59:40.656Z,102724.58
2019-05-14T04:02:10.807Z,102726.49
2019-05-14T04:04:40.356Z,102729.69
2019-05-14T04:07:30.590Z,102741.47
2019-05-14T04:10:00.873Z,102731.32
2019-05-14T04:12:32.629Z,102730.39
2019-05-14T04:15:04.144Z,102735.19
2019-05-14T04:17:41.069Z,102738.57
2019-05-14T04:20:09.473Z,102734.30
2019-05-14T04:22:40.719Z,102729.45
2019-05-14T04:25:11.336Z,102727.58
2019-05-14T04:27:40.929Z,102732.08
2019-05-14T04:30:12.400Z,102735.64
2019-05-14T04:32:42.356Z,102727.22
2019-05-14T04:35:12.180Z,102718.95
2019-05-14T04:37:41.563Z,102720.09
2019-05-14T04:40:10.851Z,102720.32
2019-05-14T04:42:40.745Z,102727.50
2019-05-14T04:45:11.250Z,102722.50
2019-05-14T04:47:42.129Z,102723.80
2019-05-14T04:50:12.428Z,102715.21
2019-05-14T04:52:41.500Z,102721.75
2019-05-14T04:55:10.903Z,102721.75
2019-05-14T04:57:40.056Z,102720.83
2019-05-14T05:00:12.263Z,102724.92
2019-05-14T05:02:40.933Z,102724.23
2019-05-14T05:05:10.422Z,102718.60
2019-05-14T05:07:40.487Z,102722.35
2019-05-14T05:10:11.125Z,102722.66
2019-05-14T05:12:40.290Z,102725.14
2019-05-14T05:15:09.864Z,102726.93
2019-05-14T05:17:47.147Z,102723.84
2019-05-14T05:20:10.454Z,102722.37
2019-05-14T05:22:40.096Z,102720.47
2019-05-14T05:25:10.977Z,102712.70
2019-05-14T05:27:40.151Z,102706.09
2019-05-14T05:30:10.541Z,102720.13
2019-05-14T05:32:39.642Z,102726.52
2019-05-14T05:35:09.823Z,102732.48
2019-05-14T05:37:38.882Z,102732.48
2019-05-14T05:40:09.205Z,102727.84
2019-05-14T05:42:38.944Z,102722.84
2019-05-14T05:45:10.693Z,102719.69
2019-05-14T05:47:54.041Z,102714.58
2019-05-14T05:50:11.751Z,102715.45
2019-05-14T05:52:40.788Z,102708.96
2019-05-14T05:55:10.730Z,102705.31
2019-05-14T05:57:39.755Z,102710.00
2019-05-14T06:00:10.041Z,102701.97
2019-05-14T06:02:39.807Z,102701.46
2019-05-14T06:05:09.792Z,102704.45
2019-05-14T06:07:39.699Z,102700.84
2019-05-14T06:10:09.416Z,102697.67
2019-05-14T06:12:39.118Z,102697.80
2019-05-14T06:15:09.873Z,102700.70
2019-05-14T06:17:39.424Z,102688.90
2019-05-14T06:20:09.302Z,102690.89
2019-05-14T06:22:38.833Z,102691.09
2019-05-14T06:25:10.924Z,102688.25
2019-05-14T06:27:39.559Z,102689.44
2019-05-14T06:30:09.943Z,102683.94
2019-05-14T06:32:39.173Z,102683.55
2019-05-14T06:35:09.389Z,102683.55
2019-05-14T06:37:38.732Z,102673.52
2019-05-14T06:40:09.091Z,102674.46
2019-05-14T06:42:39.490Z,102660.55
2019-05-14T06:45:09.675Z,102665.81
2019-05-14T06:47:38.718Z,102659.76
2019-05-14T06:50:08.713Z,102663.06
2019-05-14T06:52:38.785Z,102661.63
2019-05-14T06:55:09.018Z,102667.20
2019-05-14T06:57:39.339Z,102638.49
2019-05-14T07:00:09.737Z,102671.86
2019-05-14T07:02:43.470Z,102669.48
2019-05-14T07:05:10.377Z,102673.14
2019-05-14T07:07:40.375Z,102672.49
2019-05-14T07:10:10.823Z,102674.37
2019-05-14T07:12:39.846Z,102671.47
2019-05-14T07:15:09.736Z,102662.26
2019-05-14T07:17:39.054Z,102664.25
2019-05-14T07:20:09.350Z,102654.66
2019-05-14T07:22:39.112Z,102652.00
2019-05-14T07:25:10.093Z,102645.20
2019-05-14T07:27:39.552Z,102634.38
2019-05-14T07:30:09.995Z,102625.83
2019-05-14T07:32:39.715Z,102618.55
2019-05-14T07:35:09.557Z,102623.19
2019-05-14T07:37:39.614Z,102615.98
2019-05-14T07:40:10.524Z,102621.35
2019-05-14T07:42:39.587Z,102617.16
2019-05-14T07:45:09.858Z,102614.86
2019-05-14T07:47:39.277Z,102613.02
2019-05-14T07:50:10.063Z,102615.33
2019-05-14T07:52:45.405Z,102612.48
2019-05-14T07:55:10.446Z,102602.30
2019-05-14T07:57:39.770Z,102601.02
2019-05-14T08:00:11.258Z,102604.59
2019-05-14T08:02:40.305Z,102600.94
2019-05-14T08:05:09.875Z,102601.03
2019-05-14T08:07:39.107Z,102593.69
2019-05-14T08:10:09.786Z,102592.49
2019-05-14T08:12:39.309Z,102596.06
2019-05-14T08:15:17.757Z,102593.69
2019-05-14T08:17:40.471Z,102588.16
2019-05-14T08:20:10.664Z,102586.63
2019-05-14T08:22:40.085Z,102585.09
2019-05-14T08:25:10.567Z,102581.22
2019-05-14T08:27:39.699Z,102576.16
2019-05-14T08:30:11.253Z,102577.31
2019-05-14T08:32:40.313Z,102574.27
2019-05-14T08:35:10.175Z,102564.05
2019-05-14T08:37:39.238Z,102568.73
2019-05-14T08:40:09.604Z,102567.50
2019-05-14T08:42:38.942Z,102563.95
2019-05-14T08:45:10.570Z,102556.84
2019-05-14T08:47:39.414Z,102555.61
2019-05-14T08:50:09.447Z,102545.08
2019-05-14T08:52:39.419Z,102538.52
2019-05-14T08:55:10.858Z,102541.22
2019-05-14T08:57:39.910Z,102538.00
2019-05-14T09:00:13.781Z,102542.92
2019-05-14T09:02:40.874Z,102539.66
2019-05-14T09:05:11.174Z,102544.02
2019-05-14T09:07:40.370Z,102547.38
2019-05-14T09:10:10.000Z,102536.05
2019-05-14T09:12:39.060Z,102533.90
2019-05-14T09:15:09.914Z,102527.35
2019-05-14T09:17:39.409Z,102537.88
2019-05-14T09:20:11.450Z,102545.87
2019-05-14T09:22:40.017Z,102530.14
2019-05-14T09:25:10.310Z,102520.93
2019-05-14T09:27:39.328Z,102536.53
2019-05-14T09:30:09.883Z,102529.94
2019-05-14T09:32:39.253Z,102524.54
2019-05-14T09:35:09.780Z,102515.31
2019-05-14T09:37:39.951Z,102512.41
2019-05-14T09:40:09.810Z,102511.09
2019-05-14T09:42:39.431Z,102500.09
2019-05-14T09:45:11.608Z,102492.82
2019-05-14T09:47:40.863Z,102492.66
2019-05-14T09:50:18.576Z,102480.69
2019-05-14T09:52:42.080Z,102485.20
2019-05-14T09:55:11.770Z,102473.51
2019-05-14T09:57:40.802Z,102482.34
2019-05-14T10:00:10.668Z,102467.27
2019-05-14T10:02:39.745Z,102461.06
2019-05-14T10:05:09.633Z,102455.66
2019-05-14T10:07:39.367Z,102456.25
2019-05-14T10:10:09.626Z,102454.23
2019-05-14T10:12:51.187Z,102454.37
2019-05-14T10:15:10.514Z,102453.84
2019-05-14T10:17:39.593Z,102455.91
2019-05-14T10:20:09.238Z,102463.09
2019-05-14T10:22:39.717Z,102465.88
2019-05-14T10:25:09.944Z,102462.67
2019-05-14T10:27:39.008Z,102459.73
2019-05-14T10:30:10.560Z,102456.61
2019-05-14T10:32:41.696Z,102460.52
2019-05-14T10:35:12.227Z,102449.38
2019-05-14T10:37:41.854Z,102448.24
2019-05-14T10:40:11.612Z,102449.23
2019-05-14T10:42:40.768Z,102450.10
2019-05-14T10:45:12.876Z,102448.64
2019-05-14T10:47:41.610Z,102439.20
2019-05-14T10:50:13.809Z,102436.42
2019-05-14T10:52:41.852Z,102432.89
2019-05-14T10:55:11.515Z,102447.79
2019-05-14T10:57:40.601Z,102448.18
2019-05-14T11:00:11.658Z,102445.46
2019-05-14T11:02:40.711Z,102441.59
2019-05-14T11:05:10.680Z,102431.57
2019-05-14T11:07:41.744Z,102434.67
2019-05-14T11:10:11.587Z,102427.19
2019-05-14T11:12:40.847Z,102426.41
2019-05-14T11:15:10.847Z,102424.72
2019-05-14T11:17:40.752Z,102421.48
2019-05-14T11:20:11.273Z,102408.82
2019-05-14T11:22:40.322Z,102409.34
2019-05-14T11:25:10.694Z,102388.41
2019-05-14T11:27:39.746Z,102387.84
2019-05-14T11:30:09.933Z,102375.26
2019-05-14T11:32:39.286Z,102371.10
2019-05-14T11:35:12.854Z,102367.30
2019-05-14T11:37:41.417Z,102360.88
2019-05-14T11:40:11.100Z,102355.95
2019-05-14T11:42:40.687Z,102363.98
2019-05-14T11:45:11.095Z,102349.19
2019-05-14T11:47:40.133Z,102343.65
2019-05-14T11:50:11.530Z,102345.64
2019-05-14T11:52:40.648Z,102338.17
2019-05-14T11:55:10.336Z,102336.13
2019-05-14T11:57:39.450Z,102332.02
2019-05-14T12:00:10.397Z,102333.80
2019-05-14T12:02:39.523Z,102326.53
2019-05-14T12:05:10.602Z,102312.78
2019-05-14T12:07:39.642Z,102315.84
2019-05-14T12:10:09.644Z,102310.78
2019-05-14T12:12:38.706Z,102308.33
2019-05-14T12:15:09.033Z,102306.85
2019-05-14T12:17:39.416Z,102303.31
2019-05-14T12:20:10.286Z,102301.36
2019-05-14T12:22:39.638Z,102303.61
2019-05-14T12:25:09.934Z,102298.30
2019-05-14T12:27:39.040Z,102288.66
2019-05-14T12:30:09.814Z,102285.06
2019-05-14T12:32:39.982Z,102275.32
2019-05-14T12:35:09.490Z,102269.97
2019-05-14T12:37:39.226Z,102264.67
2019-05-14T12:40:09.208Z,102261.73
2019-05-14T12:42:39.176Z,102265.66
2019-05-14T12:45:10.853Z,102259.26
2019-05-14T12:47:39.958Z,102253.87
2019-05-14T12:50:11.108Z,102255.46
2019-05-14T12:52:40.151Z,102246.98
2019-05-14T12:55:10.037Z,102239.30
2019-05-14T12:57:39.772Z,102247.97
2019-05-14T13:00:10.403Z,102241.65
2019-05-14T13:02:39.541Z,102245.41
2019-05-14T13:05:09.163Z,102236.78
2019-05-14T13:07:41.759Z,102246.98
2019-05-14T13:10:10.829Z,102231.70
2019-05-14T13:12:39.913Z,102233.71
2019-05-14T13:15:10.272Z,102226.75
2019-05-14T13:17:39.585Z,102221.02
2019-05-14T13:20:13.609Z,102223.90
2019-05-14T13:22:45.970Z,102216.41
2019-05-14T13:25:11.668Z,102212.59
2019-05-14T13:27:40.797Z,102205.92
2019-05-14T13:30:11.393Z,102203.64
2019-05-14T13:32:40.604Z,102197.42
2019-05-14T13:35:13.529Z,102193.39
2019-05-14T13:37:41.119Z,102196.81
2019-05-14T13:40:13.783Z,102201.23
2019-05-14T13:42:44.527Z,102201.14
2019-05-14T13:45:14.312Z,102195.42
2019-05-14T13:47:43.356Z,102199.49
2019-05-14T13:50:13.153Z,102196.88
2019-05-14T13:52:58.189Z,102197.11
2019-05-14T13:55:13.561Z,102196.67
2019-05-14T13:57:42.611Z,102188.39
2019-05-14T14:00:12.480Z,102182.06
2019-05-14T14:02:41.637Z,102173.47
2019-05-14T14:05:11.017Z,102168.30
2019-05-14T14:07:43.873Z,102172.08
2019-05-14T14:10:11.622Z,102172.87
2019-05-14T14:12:40.801Z,102173.61
2019-05-14T14:15:10.390Z,102160.09
2019-05-14T14:17:39.906Z,102163.84
2019-05-14T14:20:10.328Z,102155.73
2019-05-14T14:22:40.434Z,102156.72
2019-05-14T14:25:10.109Z,102147.50
2019-05-14T14:27:41.041Z,102143.42
2019-05-14T14:30:10.942Z,102141.84
2019-05-14T14:32:40.936Z,102137.59
2019-05-14T14:35:11.759Z,102125.96
2019-05-14T14:37:40.783Z,102138.47
2019-05-14T14:40:11.173Z,102132.67
2019-05-14T14:42:40.747Z,102129.67
2019-05-14T14:45:11.062Z,102121.61
2019-05-14T14:47:40.304Z,102112.24
2019-05-14T14:50:10.470Z,102118.81
2019-05-14T14:52:39.504Z,102115.40
2019-05-14T14:55:09.444Z,102112.86
2019-05-14T14:57:45.372Z,102111.11
2019-05-14T15:00:11.460Z,102105.25
2019-05-14T15:02:41.397Z,102104.72
2019-05-14T15:05:14.241Z,102111.48
2019-05-14T15:07:42.573Z,102107.70
2019-05-14T15:10:12.849Z,102105.89
2019-05-14T15:12:42.243Z,102104.69
2019-05-14T15:15:11.819Z,102096.28
2019-05-14T15:17:40.839Z,102095.73
2019-05-14T15:20:10.856Z,102093.24
2019-05-14T15:22:40.284Z,102095.44
2019-05-14T15:25:09.469Z,102081.81
2019-05-14T15:27:38.812Z,102077.84
2019-05-14T15:30:09.315Z,102074.75
2019-05-14T15:32:38.422Z,102078.85
2019-05-14T15:35:11.444Z,102071.19
2019-05-14T15:37:42.866Z,102074.20
2019-05-14T15:40:12.469Z,102077.87
2019-05-14T15:42:41.569Z,102081.08
2019-05-14T15:45:11.445Z,102072.94
2019-05-14T15:47:40.467Z,102069.33
2019-05-14T15:50:11.465Z,102066.89
2019-05-14T15:52:40.675Z,102062.12
2019-05-14T15:55:11.376Z,102055.44
2019-05-14T15:57:40.406Z,102052.75
2019-05-14T16:00:10.910Z,102048.98
2019-05-14T16:02:40.166Z,102060.64
2019-05-14T16:05:10.198Z,102060.11
2019-05-14T16:07:39.821Z,102063.08
2019-05-14T16:10:10.519Z,102050.56
2019-05-14T16:12:40.302Z,102058.44
2019-05-14T16:15:10.049Z,102049.12
2019-05-14T16:17:48.460Z,102050.69
2019-05-14T16:20:10.865Z,102044.95
2019-05-14T16:22:40.259Z,102032.67
2019-05-14T16:25:10.382Z,102035.25
2019-05-14T16:27:39.991Z,102030.61
2019-05-14T16:30:10.485Z,102028.55
2019-05-14T16:32:40.013Z,102027.66
2019-05-14T16:35:09.807Z,102035.86
2019-05-14T16:37:39.502Z,102032.70
2019-05-14T16:40:10.770Z,102033.20
2019-05-14T16:42:40.288Z,102039.79
2019-05-14T16:45:10.153Z,101996.22
2019-05-14T16:47:40.147Z,102039.23
2019-05-14T16:50:10.526Z,102049.48
2019-05-14T16:52:42.173Z,102049.16
2019-05-14T16:55:22.547Z,102050.23
2019-05-14T16:57:42.473Z,102055.87
2019-05-14T17:00:12.566Z,102053.89
2019-05-14T17:02:42.256Z,102044.73
2019-05-14T17:05:11.939Z,102051.08
2019-05-14T17:07:41.075Z,102043.02
2019-05-14T17:10:10.927Z,102047.03
2019-05-14T17:12:52.628Z,102042.86
2019-05-14T17:15:11.405Z,102049.06
2019-05-14T17:17:40.535Z,102051.66
2019-05-14T17:20:10.200Z,102054.84
2019-05-14T17:22:40.039Z,102050.92
2019-05-14T17:25:10.010Z,102045.41
2019-05-14T17:27:39.719Z,102049.50
2019-05-14T17:30:10.114Z,102053.72
2019-05-14T17:32:39.570Z,102050.36
2019-05-14T17:35:10.717Z,102049.83
2019-05-14T17:37:40.114Z,102048.80
2019-05-14T17:40:09.928Z,102052.53
2019-05-14T17:42:39.599Z,102055.89
2019-05-14T17:45:10.013Z,102056.70
2019-05-14T17:47:40.219Z,102056.16
2019-05-14T17:50:09.920Z,102055.98
2019-05-14T17:52:43.711Z,102061.33
2019-05-14T17:55:12.049Z,102061.20
2019-05-14T17:57:46.582Z,102067.24
2019-05-14T18:00:13.277Z,102063.39
2019-05-14T18:02:42.361Z,102065.75
2019-05-14T18:05:11.966Z,102061.84
2019-05-14T18:07:40.973Z,102049.88
2019-05-14T18:10:10.997Z,102053.34
2019-05-14T18:12:40.204Z,102058.97
2019-05-14T18:15:10.034Z,102057.85
2019-05-14T18:17:39.575Z,102053.27
2019-05-14T18:20:09.423Z,102059.80
2019-05-14T18:22:42.091Z,102051.96
2019-05-14T18:25:09.499Z,102056.54
2019-05-14T18:27:39.408Z,102060.16
2019-05-14T18:30:10.116Z,102054.63
2019-05-14T18:32:39.296Z,102048.90
2019-05-14T18:35:08.686Z,102054.93
2019-05-14T18:37:38.923Z,102054.30
2019-05-14T18:40:09.323Z,102055.51
2019-05-14T18:42:39.025Z,102054.41
2019-05-14T18:45:09.061Z,102056.44
2019-05-14T18:47:39.871Z,102054.58
2019-05-14T18:50:09.421Z,102062.48
2019-05-14T18:52:40.002Z,102060.49
2019-05-14T18:55:10.002Z,102064.41
2019-05-14T18:57:39.250Z,102063.31
2019-05-14T19:00:09.631Z,102066.38
2019-05-14T19:02:39.386Z,102069.84
2019-05-14T19:05:09.527Z,102069.77
2019-05-14T19:07:39.531Z,102075.14
2019-05-14T19:10:10.190Z,102064.63
2019-05-14T19:12:39.225Z,102069.52
2019-05-14T19:15:09.073Z,102065.05
2019-05-14T19:17:38.871Z,102068.34
2019-05-14T19:20:08.940Z,102068.02
2019-05-14T19:22:39.574Z,102077.84
2019-05-14T19:25:09.839Z,102079.22
2019-05-14T19:27:38.883Z,102082.53
2019-05-14T19:30:09.044Z,102083.14
2019-05-14T19:32:39.357Z,102086.30
2019-05-14T19:35:09.133Z,102083.73
2019-05-14T19:37:39.114Z,102080.11
2019-05-14T19:40:09.409Z,102089.20
2019-05-14T19:42:39.355Z,102089.81
2019-05-14T19:45:09.589Z,102089.45
2019-05-14T19:47:40.053Z,102091.64
2019-05-14T19:50:11.259Z,102085.09
2019-05-14T19:52:40.350Z,102096.45
2019-05-14T19:55:09.613Z,102092.33
2019-05-14T19:57:38.681Z,102093.77
2019-05-14T20:00:09.837Z,102093.69
2019-05-14T20:02:38.968Z,102101.41
2019-05-14T20:05:09.213Z,102102.55
2019-05-14T20:07:39.148Z,102100.38
2019-05-14T20:10:09.138Z,102108.00
2019-05-14T20:12:39.251Z,102102.38
2019-05-14T20:15:09.780Z,102104.48
2019-05-14T20:17:38.986Z,102099.83
2019-05-14T20:20:09.394Z,102100.66
2019-05-14T20:22:39.549Z,102105.82
2019-05-14T20:25:09.859Z,102103.38
2019-05-14T20:27:39.392Z,102103.47
2019-05-14T20:30:09.915Z,102093.19
2019-05-14T20:32:38.989Z,102095.20
2019-05-14T20:35:09.889Z,102098.86
2019-05-14T20:37:39.246Z,102090.45
2019-05-14T20:40:10.342Z,102097.54
2019-05-14T20:42:39.581Z,102090.50
2019-05-14T20:45:09.750Z,102093.44
2019-05-14T20:47:39.285Z,102093.94
2019-05-14T20:50:09.293Z,102092.19
2019-05-14T20:52:38.307Z,102088.90
2019-05-14T20:55:09.439Z,102098.70
2019-05-14T20:57:38.848Z,102092.34
2019-05-14T21:00:11.578Z,102098.70
2019-05-14T21:02:40.158Z,102096.15
2019-05-14T21:05:13.633Z,102097.97
2019-05-14T21:07:40.907Z,102097.06
2019-05-14T21:10:10.885Z,102095.09
2019-05-14T21:12:39.909Z,102087.92
2019-05-14T21:15:09.860Z,102086.54
2019-05-14T21:17:39.804Z,102092.17
2019-05-14T21:20:09.320Z,102099.34
2019-05-14T21:22:40.113Z,102090.79
2019-05-14T21:25:12.544Z,102096.77
2019-05-14T21:27:47.860Z,102097.11
2019-05-14T21:30:11.970Z,102098.73
2019-05-14T21:32:42.552Z,102098.37
2019-05-14T21:35:12.768Z,102095.66
2019-05-14T21:37:41.824Z,102098.45
2019-05-14T21:40:11.637Z,102094.50
2019-05-14T21:42:40.651Z,102096.12
2019-05-14T21:45:10.269Z,102097.84
2019-05-14T21:47:39.317Z,102092.66
2019-05-14T21:50:09.308Z,102092.03
2019-05-14T21:52:42.190Z,102083.05
2019-05-14T21:55:09.977Z,102088.09
2019-05-14T21:57:53.155Z,102086.32
2019-05-14T22:00:18.447Z,102090.50
2019-05-14T22:02:49.187Z,102084.64
2019-05-14T22:05:18.989Z,102084.57
2019-05-14T22:07:48.704Z,102085.70
2019-05-14T22:10:19.266Z,102085.00
2019-05-14T22:12:48.876Z,102083.32
2019-05-14T22:15:19.909Z,102085.41
2019-05-14T22:17:49.368Z,102080.48
2019-05-14T22:20:19.335Z,102077.59
2019-05-14T22:22:49.294Z,102082.39
2019-05-14T22:25:18.970Z,102084.47
2019-05-14T22:27:49.168Z,102076.82
2019-05-14T22:30:19.062Z,102074.08
2019-05-14T22:32:48.095Z,102080.05
2019-05-14T22:35:18.684Z,102083.64
2019-05-14T22:37:48.366Z,102075.99
2019-05-14T22:40:18.558Z,102082.10
2019-05-14T22:42:47.602Z,102082.22
2019-05-14T22:45:18.511Z,102075.38
2019-05-14T22:47:49.037Z,102079.69
2019-05-14T22:50:18.779Z,102080.65
2019-05-14T22:52:48.659Z,102073.02
2019-05-14T22:55:18.063Z,102076.24
2019-05-14T22:57:48.353Z,102062.73
2019-05-14T23:00:20.930Z,102062.73
2019-05-14T23:02:49.171Z,102066.70
2019-05-14T23:05:19.240Z,102071.83
2019-05-14T23:07:48.677Z,102070.28
2019-05-14T23:10:18.336Z,102068.36
2019-05-14T23:12:48.875Z,102076.44
2019-05-14T23:15:18.314Z,102071.95
2019-05-14T23:17:48.027Z,102071.99
2019-05-14T23:20:19.547Z,102064.49
2019-05-14T23:22:49.165Z,102058.38
2019-05-14T23:25:18.746Z,102062.59
2019-05-14T23:27:48.374Z,102064.37
2019-05-14T23:30:20.830Z,102062.78
2019-05-14T23:32:50.113Z,102061.44
2019-05-14T23:35:19.178Z,102065.73
2019-05-14T23:37:49.015Z,102069.35
2019-05-14T23:40:18.526Z,102060.45
2019-05-14T23:42:48.993Z,102063.84
2019-05-14T23:45:19.089Z,102065.77
2019-05-14T23:47:49.304Z,102060.68
2019-05-14T23:50:18.739Z,102062.11
2019-05-14T23:52:49.272Z,102056.72
2019-05-14T23:55:18.774Z,102059.89
2019-05-14T23:57:48.257Z,102058.50
